createdAt,value
2023-08-12T00:01:34.287Z,65.40
2023-08-12T00:04:37.203Z,65.57
2023-08-12T00:07:41.873Z,65.17
2023-08-12T00:10:44.769Z,65.10
2023-08-12T00:13:47.612Z,65.40
2023-08-12T00:16:51.786Z,65.52
2023-08-12T00:19:54.688Z,65.52
2023-08-12T00:22:57.506Z,65.11
2023-08-12T00:26:00.307Z,65.22
2023-08-12T00:29:03.837Z,65.13
2023-08-12T00:32:08.252Z,65.05
2023-08-12T00:35:11.243Z,65.39
2023-08-12T00:38:14.157Z,65.35
2023-08-12T00:41:17.008Z,65.12
2023-08-12T00:44:20.052Z,65.30
2023-08-12T00:47:24.331Z,65.04
2023-08-12T00:50:27.584Z,65.00
2023-08-12T00:53:30.567Z,65.17
2023-08-12T00:56:33.583Z,65.00
2023-08-12T00:59:37.248Z,64.91
2023-08-12T01:02:41.760Z,64.95
2023-08-12T01:05:44.807Z,65.03
2023-08-12T01:08:47.620Z,65.04
2023-08-12T01:11:52.710Z,65.05
2023-08-12T01:14:58.543Z,65.18
2023-08-12T01:18:02.990Z,65.15
2023-08-12T01:21:09.130Z,64.88
2023-08-12T01:24:13.422Z,65.01
2023-08-12T01:27:16.433Z,64.63
2023-08-12T01:30:20.796Z,64.98
2023-08-12T01:33:28.429Z,64.94
2023-08-12T01:36:31.848Z,64.75
2023-08-12T01:39:37.695Z,64.98
2023-08-12T01:42:41.456Z,64.52
2023-08-12T01:45:45.148Z,64.50
2023-08-12T01:48:48.008Z,64.52
2023-08-12T01:51:50.803Z,64.62
2023-08-12T01:54:55.070Z,64.57
2023-08-12T01:57:58.059Z,64.45
2023-08-12T02:01:00.882Z,64.76
2023-08-12T02:04:03.739Z,64.48
2023-08-12T02:07:06.794Z,64.46
2023-08-12T02:10:11.596Z,64.78
2023-08-12T02:13:14.389Z,64.53
2023-08-12T02:16:17.285Z,64.45
2023-08-12T02:19:20.132Z,64.64
2023-08-12T02:22:24.146Z,64.40
2023-08-12T02:25:28.393Z,64.59
2023-08-12T02:28:31.200Z,64.75
2023-08-12T02:31:34.148Z,64.32
2023-08-12T02:34:36.958Z,64.46
2023-08-12T02:37:39.788Z,64.35
2023-08-12T02:40:44.010Z,64.28
2023-08-12T02:43:46.868Z,64.36
2023-08-12T02:46:49.669Z,64.37
2023-08-12T02:49:52.406Z,64.47
2023-08-12T02:52:55.233Z,64.33
2023-08-12T02:55:59.392Z,64.49
2023-08-12T02:59:02.249Z,64.25
2023-08-12T03:02:05.229Z,64.39
2023-08-12T03:05:08.514Z,64.48
2023-08-12T03:08:11.328Z,64.29
2023-08-12T03:11:16.794Z,64.43
2023-08-12T03:14:19.636Z,64.37
2023-08-12T03:17:22.463Z,64.37
2023-08-12T03:20:25.360Z,64.20
2023-08-12T03:23:28.316Z,64.19
2023-08-12T03:26:32.477Z,64.22
2023-08-12T03:29:35.522Z,64.45
2023-08-12T03:32:38.368Z,64.24
2023-08-12T03:35:41.227Z,64.74
2023-08-12T03:38:44.155Z,64.29
2023-08-12T03:41:48.432Z,64.31
2023-08-12T03:44:51.224Z,64.62
2023-08-12T03:47:54.168Z,64.36
2023-08-12T03:50:56.989Z,64.25
2023-08-12T03:54:00.195Z,64.15
2023-08-12T03:57:04.358Z,64.34
2023-08-12T04:00:09.255Z,64.31
2023-08-12T04:03:12.582Z,64.28
2023-08-12T04:06:15.432Z,64.30
2023-08-12T04:09:18.469Z,64.25
2023-08-12T04:12:22.701Z,64.39
2023-08-12T04:15:25.527Z,64.44
2023-08-12T04:18:28.289Z,64.40
2023-08-12T04:21:31.118Z,64.36
2023-08-12T04:24:33.894Z,64.80
2023-08-12T04:27:38.048Z,64.68
2023-08-12T04:30:42.821Z,64.38
2023-08-12T04:33:45.749Z,64.55
2023-08-12T04:36:48.627Z,64.46
2023-08-12T04:39:51.438Z,64.79
2023-08-12T04:42:56.144Z,64.53
2023-08-12T04:45:59.051Z,64.59
2023-08-12T04:49:01.990Z,64.63
2023-08-12T04:52:04.889Z,64.68
2023-08-12T04:55:07.922Z,64.90
2023-08-12T04:58:12.061Z,64.87
2023-08-12T05:01:14.917Z,64.60
2023-08-12T05:04:17.772Z,64.50
2023-08-12T05:07:20.660Z,64.73
2023-08-12T05:10:23.579Z,64.67
2023-08-12T05:13:29.348Z,64.49
2023-08-12T05:16:32.157Z,64.67
2023-08-12T05:19:35.211Z,64.76
2023-08-12T05:22:38.004Z,64.88
2023-08-12T05:25:41.104Z,64.51
2023-08-12T05:28:45.304Z,64.54
2023-08-12T05:31:48.203Z,64.47
2023-08-12T05:34:52.112Z,64.88
2023-08-12T05:37:54.920Z,65.09
2023-08-12T05:40:57.684Z,64.93
2023-08-12T05:44:01.895Z,64.76
2023-08-12T05:47:04.715Z,64.63
2023-08-12T05:50:08.568Z,64.95
2023-08-12T05:53:11.494Z,64.73
2023-08-12T05:56:14.299Z,64.83
2023-08-12T05:59:18.546Z,64.83
2023-08-12T06:02:21.417Z,64.72
2023-08-12T06:05:24.295Z,64.72
2023-08-12T06:08:27.168Z,64.66
2023-08-12T06:11:30.310Z,64.69
2023-08-12T06:14:34.560Z,64.62
2023-08-12T06:17:37.450Z,64.70
2023-08-12T06:20:40.306Z,64.70
2023-08-12T06:23:43.138Z,64.90
2023-08-12T06:26:46.000Z,65.05
2023-08-12T06:29:50.151Z,64.82
2023-08-12T06:32:53.054Z,64.55
2023-08-12T06:35:55.897Z,64.47
2023-08-12T06:38:58.808Z,64.47
2023-08-12T06:42:01.577Z,64.47
2023-08-12T06:45:06.294Z,64.55
2023-08-12T06:48:09.220Z,64.73
2023-08-12T06:51:12.465Z,64.67
2023-08-12T06:54:15.272Z,64.38
2023-08-12T06:57:18.151Z,64.27
2023-08-12T07:00:22.617Z,64.63
2023-08-12T07:03:25.460Z,64.43
2023-08-12T07:06:28.304Z,64.60
2023-08-12T07:09:31.124Z,64.46
2023-08-12T07:12:33.957Z,64.52
2023-08-12T07:15:38.214Z,64.34
2023-08-12T07:18:41.042Z,64.50
2023-08-12T07:21:43.869Z,64.40
2023-08-12T07:24:46.695Z,64.37
2023-08-12T07:27:49.496Z,64.72
2023-08-12T07:30:53.772Z,64.37
2023-08-12T07:33:56.570Z,64.89
2023-08-12T07:36:59.406Z,64.53
2023-08-12T07:40:02.273Z,64.36
2023-08-12T07:43:05.310Z,64.31
2023-08-12T07:46:10.465Z,64.57
2023-08-12T07:49:13.520Z,64.63
2023-08-12T07:52:16.390Z,64.26
2023-08-12T07:55:19.346Z,63.97
2023-08-12T07:58:22.144Z,64.33
2023-08-12T08:01:26.346Z,64.42
2023-08-12T08:04:29.226Z,64.81
2023-08-12T08:07:33.086Z,64.89
2023-08-12T08:10:36.094Z,64.88
2023-08-12T08:13:39.305Z,64.93
2023-08-12T08:16:43.683Z,64.65
2023-08-12T08:19:46.593Z,64.86
2023-08-12T08:22:49.490Z,64.81
2023-08-12T08:25:52.405Z,64.60
2023-08-12T08:28:55.254Z,64.80
2023-08-12T08:31:59.408Z,64.66
2023-08-12T08:35:02.298Z,64.40
2023-08-12T08:38:05.287Z,64.37
2023-08-12T08:41:08.450Z,64.29
2023-08-12T08:44:11.454Z,64.35
2023-08-12T08:47:17.343Z,64.30
2023-08-12T08:50:20.466Z,64.21
2023-08-12T08:53:23.742Z,64.47
2023-08-12T08:56:27.047Z,64.01
2023-08-12T08:59:32.021Z,64.11
2023-08-12T09:02:37.290Z,64.03
2023-08-12T09:05:41.029Z,64.21
2023-08-12T09:08:45.617Z,63.75
2023-08-12T09:11:49.424Z,64.24
2023-08-12T09:14:52.212Z,63.76
2023-08-12T09:17:56.415Z,63.95
2023-08-12T09:20:59.378Z,64.06
2023-08-12T09:24:04.617Z,63.83
2023-08-12T09:27:07.481Z,63.91
2023-08-12T09:30:10.636Z,64.14
2023-08-12T09:33:14.830Z,63.65
2023-08-12T09:36:17.815Z,64.00
2023-08-12T09:39:21.259Z,63.68
2023-08-12T09:42:24.068Z,63.71
2023-08-12T09:45:28.116Z,63.30
2023-08-12T09:48:32.327Z,63.45
2023-08-12T09:51:37.003Z,63.45
2023-08-12T09:54:40.647Z,63.56
2023-08-12T09:57:44.539Z,63.09
2023-08-12T10:00:47.802Z,62.72
2023-08-12T10:03:52.878Z,62.53
2023-08-12T10:06:56.602Z,62.65
2023-08-12T10:09:59.661Z,62.41
2023-08-12T10:13:03.120Z,62.62
2023-08-12T10:16:06.208Z,62.83
2023-08-12T10:19:16.360Z,62.97
2023-08-12T10:22:19.400Z,63.38
2023-08-12T10:25:23.774Z,63.21
2023-08-12T10:28:26.704Z,62.95
2023-08-12T10:31:30.348Z,62.68
2023-08-12T10:34:34.660Z,63.01
2023-08-12T10:37:37.553Z,61.74
2023-08-12T10:40:40.416Z,62.23
2023-08-12T10:43:50.826Z,62.85
2023-08-12T10:46:54.276Z,62.82
2023-08-12T10:49:59.185Z,62.63
2023-08-12T10:53:22.083Z,62.95
2023-08-12T10:56:25.374Z,61.40
2023-08-12T10:59:46.298Z,61.53
2023-08-12T11:02:51.487Z,61.98
2023-08-12T11:05:57.541Z,61.54
2023-08-12T11:09:00.669Z,61.70
2023-08-12T11:12:04.932Z,61.54
2023-08-12T11:15:08.828Z,61.77
2023-08-12T11:18:12.759Z,61.35
2023-08-12T11:21:17.096Z,61.85
2023-08-12T11:24:19.892Z,61.26
2023-08-12T11:27:23.985Z,61.37
2023-08-12T11:30:28.435Z,61.53
2023-08-12T11:33:34.675Z,61.45
2023-08-12T11:36:38.997Z,61.67
2023-08-12T11:39:41.896Z,61.41
2023-08-12T11:42:45.642Z,61.06
2023-08-12T11:45:48.530Z,61.18
2023-08-12T11:48:52.155Z,61.11
2023-08-12T11:51:56.732Z,60.96
2023-08-12T11:54:59.758Z,61.09
2023-08-12T11:58:03.166Z,60.87
2023-08-12T12:01:07.721Z,60.71
2023-08-12T12:04:12.671Z,61.03
2023-08-12T12:07:23.735Z,60.93
2023-08-12T12:10:32.750Z,60.48
2023-08-12T12:13:36.886Z,60.64
2023-08-12T12:16:41.496Z,60.69
2023-08-12T12:19:44.370Z,60.24
2023-08-12T12:22:49.358Z,60.09
2023-08-12T12:25:58.701Z,60.67
2023-08-12T12:29:01.470Z,60.24
2023-08-12T12:32:04.414Z,60.04
2023-08-12T12:35:08.753Z,60.18
2023-08-12T12:38:12.898Z,59.99
2023-08-12T12:41:15.745Z,60.18
2023-08-12T12:44:18.568Z,59.66
2023-08-12T12:47:21.542Z,59.64
2023-08-12T12:50:24.522Z,59.83
2023-08-12T12:53:28.720Z,59.89
2023-08-12T12:56:31.679Z,59.59
2023-08-12T12:59:34.685Z,59.53
2023-08-12T13:02:37.578Z,59.60
2023-08-12T13:05:40.649Z,59.42
2023-08-12T13:08:44.853Z,59.62
2023-08-12T13:11:47.720Z,59.98
2023-08-12T13:14:50.516Z,59.35
2023-08-12T13:17:53.409Z,59.72
2023-08-12T13:20:56.417Z,59.28
2023-08-12T13:24:00.667Z,59.68
2023-08-12T13:27:03.534Z,59.33
2023-08-12T13:30:07.770Z,59.52
2023-08-12T13:33:10.626Z,59.16
2023-08-12T13:36:14.105Z,59.40
2023-08-12T13:39:19.083Z,59.24
2023-08-12T13:42:21.958Z,59.29
2023-08-12T13:45:25.743Z,59.13
2023-08-12T13:48:28.917Z,58.99
2023-08-12T13:51:33.099Z,58.94
2023-08-12T13:54:37.452Z,59.01
2023-08-12T13:57:40.306Z,58.96
2023-08-12T14:00:43.198Z,58.99
2023-08-12T14:03:46.082Z,58.72
2023-08-12T14:06:49.701Z,58.78
2023-08-12T14:09:55.590Z,58.32
2023-08-12T14:12:58.421Z,58.24
2023-08-12T14:16:01.265Z,58.90
2023-08-12T14:19:04.118Z,58.19
2023-08-12T14:22:07.008Z,58.24
2023-08-12T14:25:12.280Z,57.88
2023-08-12T14:28:15.321Z,57.88
2023-08-12T14:31:18.137Z,57.82
2023-08-12T14:34:21.050Z,57.75
2023-08-12T14:37:23.988Z,57.87
2023-08-12T14:40:28.135Z,56.69
2023-08-12T14:43:31.027Z,57.31
2023-08-12T14:46:33.897Z,57.11
2023-08-12T14:49:36.783Z,57.33
2023-08-12T14:52:39.732Z,57.53
2023-08-12T14:55:44.031Z,57.23
2023-08-12T14:58:46.910Z,56.97
2023-08-12T15:01:49.763Z,57.22
2023-08-12T15:04:53.513Z,57.02
2023-08-12T15:07:56.378Z,56.92
2023-08-12T15:11:00.679Z,56.16
2023-08-12T15:14:03.478Z,56.76
2023-08-12T15:17:06.275Z,57.13
2023-08-12T15:20:11.647Z,55.89
2023-08-12T15:23:14.498Z,56.71
2023-08-12T15:26:18.786Z,56.46
2023-08-12T15:29:21.578Z,56.48
2023-08-12T15:32:24.410Z,57.07
2023-08-12T15:35:27.271Z,56.92
2023-08-12T15:38:30.031Z,56.69
2023-08-12T15:41:34.249Z,56.66
2023-08-12T15:44:39.044Z,55.89
2023-08-12T15:47:43.786Z,55.82
2023-08-12T15:50:46.900Z,55.91
2023-08-12T15:53:49.721Z,55.98
2023-08-12T15:56:54.506Z,55.77
2023-08-12T15:59:57.376Z,56.00
2023-08-12T16:03:00.323Z,56.20
2023-08-12T16:06:04.034Z,56.07
2023-08-12T16:09:18.136Z,56.34
2023-08-12T16:12:23.400Z,55.86
2023-08-12T16:15:26.315Z,55.66
2023-08-12T16:18:29.165Z,56.11
2023-08-12T16:21:32.726Z,56.25
2023-08-12T16:24:35.633Z,56.06
2023-08-12T16:27:39.844Z,56.16
2023-08-12T16:30:42.648Z,56.23
2023-08-12T16:33:45.434Z,56.29
2023-08-12T16:36:53.421Z,56.85
2023-08-12T16:40:01.645Z,56.84
2023-08-12T16:43:06.106Z,57.26
2023-08-12T16:46:09.041Z,57.27
2023-08-12T16:49:11.968Z,56.86
2023-08-12T16:52:15.037Z,57.13
2023-08-12T16:55:18.255Z,56.97
2023-08-12T16:58:22.451Z,57.23
2023-08-12T17:01:25.400Z,57.34
2023-08-12T17:04:28.245Z,57.26
2023-08-12T17:07:31.021Z,56.91
2023-08-12T17:10:34.329Z,57.32
2023-08-12T17:13:38.772Z,57.01
2023-08-12T17:16:41.618Z,56.96
2023-08-12T17:19:44.670Z,56.94
2023-08-12T17:22:47.536Z,56.98
2023-08-12T17:25:53.452Z,57.12
2023-08-12T17:28:57.580Z,57.22
2023-08-12T17:32:00.612Z,57.55
2023-08-12T17:35:04.585Z,57.58
2023-08-12T17:38:07.583Z,57.35
2023-08-12T17:41:11.270Z,57.16
2023-08-12T17:44:16.006Z,57.07
2023-08-12T17:47:18.824Z,57.25
2023-08-12T17:50:21.624Z,57.47
2023-08-12T17:53:24.503Z,57.37
2023-08-12T17:56:27.515Z,57.52
2023-08-12T17:59:31.633Z,57.47
2023-08-12T18:02:34.537Z,57.90
2023-08-12T18:05:37.394Z,57.80
2023-08-12T18:08:40.258Z,57.78
2023-08-12T18:11:43.082Z,57.99
2023-08-12T18:14:47.257Z,57.81
2023-08-12T18:17:51.988Z,57.87
2023-08-12T18:20:54.905Z,57.77
2023-08-12T18:23:57.715Z,58.38
2023-08-12T18:27:00.738Z,58.32
2023-08-12T18:30:05.506Z,58.73
2023-08-12T18:33:08.507Z,58.56
2023-08-12T18:36:11.666Z,58.17
2023-08-12T18:39:14.520Z,58.28
2023-08-12T18:42:17.303Z,58.04
2023-08-12T18:45:21.595Z,57.98
2023-08-12T18:48:24.425Z,57.83
2023-08-12T18:51:27.192Z,57.78
2023-08-12T18:54:30.063Z,57.42
2023-08-12T18:57:32.879Z,57.14
2023-08-12T19:00:37.085Z,57.47
2023-08-12T19:03:39.950Z,57.20
2023-08-12T19:06:42.882Z,57.28
2023-08-12T19:09:45.805Z,57.09
2023-08-12T19:12:48.688Z,56.89
2023-08-12T19:15:53.466Z,56.59
2023-08-12T19:18:56.264Z,56.65
2023-08-12T19:21:59.135Z,56.85
2023-08-12T19:25:01.954Z,56.68
2023-08-12T19:28:05.014Z,56.70
2023-08-12T19:31:09.278Z,56.83
2023-08-12T19:34:12.291Z,57.32
2023-08-12T19:37:15.467Z,57.16
2023-08-12T19:40:19.210Z,57.35
2023-08-12T19:43:22.051Z,57.41
2023-08-12T19:46:26.831Z,58.00
2023-08-12T19:49:30.043Z,58.23
2023-08-12T19:52:32.873Z,58.36
2023-08-12T19:55:35.667Z,58.70
2023-08-12T19:58:38.544Z,58.93
2023-08-12T20:01:42.711Z,58.53
2023-08-12T20:04:46.508Z,58.68
2023-08-12T20:07:49.972Z,58.53
2023-08-12T20:10:53.763Z,58.98
2023-08-12T20:13:56.576Z,59.07
2023-08-12T20:17:00.802Z,59.38
2023-08-12T20:20:04.258Z,59.57
2023-08-12T20:23:07.094Z,59.14
2023-08-12T20:26:10.847Z,59.27
2023-08-12T20:29:13.638Z,59.26
2023-08-12T20:32:17.892Z,59.88
2023-08-12T20:35:20.751Z,59.40
2023-08-12T20:38:24.102Z,59.36
2023-08-12T20:41:26.871Z,58.71
2023-08-12T20:44:29.748Z,59.50
2023-08-12T20:47:34.030Z,59.75
2023-08-12T20:50:36.890Z,59.48
2023-08-12T20:53:39.785Z,59.92
2023-08-12T20:56:42.760Z,60.17
2023-08-12T20:59:47.448Z,59.93
2023-08-12T21:02:51.794Z,60.51
2023-08-12T21:05:54.704Z,60.05
2023-08-12T21:08:57.532Z,60.39
2023-08-12T21:12:00.520Z,60.23
2023-08-12T21:15:03.431Z,60.50
2023-08-12T21:18:08.437Z,60.42
2023-08-12T21:21:12.563Z,60.68
2023-08-12T21:24:15.471Z,60.48
2023-08-12T21:27:18.336Z,60.62
2023-08-12T21:30:21.349Z,60.56
2023-08-12T21:33:25.933Z,60.44
2023-08-12T21:36:28.728Z,60.34
2023-08-12T21:39:31.517Z,60.31
2023-08-12T21:42:34.280Z,60.60
2023-08-12T21:45:37.379Z,60.87
2023-08-12T21:48:41.654Z,60.88
2023-08-12T21:51:45.202Z,60.97
2023-08-12T21:54:48.007Z,61.10
2023-08-12T21:57:50.928Z,60.89
2023-08-12T22:00:53.768Z,60.44
2023-08-12T22:03:57.963Z,60.38
2023-08-12T22:07:00.806Z,60.75
2023-08-12T22:10:04.241Z,60.91
2023-08-12T22:13:07.086Z,61.19
2023-08-12T22:16:09.899Z,60.94
2023-08-12T22:19:14.113Z,60.53
2023-08-12T22:22:20.181Z,60.71
2023-08-12T22:25:24.071Z,60.94
2023-08-12T22:28:27.226Z,61.09
2023-08-12T22:31:30.063Z,60.91
2023-08-12T22:34:34.823Z,60.97
2023-08-12T22:37:37.709Z,60.94
2023-08-12T22:40:40.579Z,61.07
2023-08-12T22:43:43.452Z,60.97
2023-08-12T22:46:46.359Z,61.05
2023-08-12T22:49:50.952Z,60.59
2023-08-12T22:52:53.756Z,60.87
2023-08-12T22:55:56.539Z,60.79
2023-08-12T22:59:01.134Z,60.52
2023-08-12T23:02:04.008Z,60.70
2023-08-12T23:05:08.767Z,61.10
2023-08-12T23:08:11.615Z,60.94
2023-08-12T23:11:14.476Z,60.61
2023-08-12T23:14:17.318Z,61.00
2023-08-12T23:17:20.233Z,61.08
2023-08-12T23:20:24.431Z,61.03
2023-08-12T23:23:27.232Z,60.29
2023-08-12T23:26:30.071Z,59.45
2023-08-12T23:29:32.821Z,60.52
2023-08-12T23:32:35.716Z,60.41
2023-08-12T23:35:41.200Z,59.80
2023-08-12T23:38:44.050Z,59.55
2023-08-12T23:41:46.948Z,59.68
2023-08-12T23:44:49.743Z,59.84
2023-08-12T23:47:52.633Z,60.57
2023-08-12T23:50:56.935Z,60.85
2023-08-12T23:53:59.721Z,60.61
2023-08-12T23:57:02.544Z,60.55
